首页
METAR-TAF:

METAR-TAF

机场 :

Ogoki Post, 安大略省, 加拿大

纬度: 51-39-31N, 经度: 85-54-04W, 海拔: 181米

当前天气观测

该预报发布于38分钟前的10:00 UTC
风速6节,风向北转西北
温度 12°C
湿度 100%
气压 1018 hPa
能見度: 14.5公里
阴天层高于2100英尺

METAR: CYKP 011000Z AUTO 33006KT 9SM OVC021 12/12 A3006 RMK SLP177

时间: 06:38 (10:38 UTC)


TAF: 丢失

超过4000个机场的气象观测和天气预报(METAR&TAF报告)。

可查询的气象台以黄色和红色小点在地图上表示。

将鼠标移到小点上方,可查看气象台名称。

然后点击查看天气观测和预报。

如需切换地图:点击带黑十字的绿色按钮放大地图;点击带横线的绿色按钮缩小地图;或者点击绿色箭头查看邻近地区的地图。


METAR-TAF: